sensor_id;sensor_type;location;lat;lon;timestamp;temperature;humidity
70534;SHT31;58088;51.186;17.130;2024-02-26T00:02:20;4.73;69.91
70534;SHT31;58088;51.186;17.130;2024-02-26T00:04:47;4.71;69.93
70534;SHT31;58088;51.186;17.130;2024-02-26T00:07:14;4.68;70.06
70534;SHT31;58088;51.186;17.130;2024-02-26T00:09:40;4.66;70.20
70534;SHT31;58088;51.186;17.130;2024-02-26T00:12:06;4.65;70.17
70534;SHT31;58088;51.186;17.130;2024-02-26T00:14:32;4.66;70.07
70534;SHT31;58088;51.186;17.130;2024-02-26T00:16:58;4.66;70.06
70534;SHT31;58088;51.186;17.130;2024-02-26T00:19:25;4.65;70.00
70534;SHT31;58088;51.186;17.130;2024-02-26T00:21:51;4.65;69.96
70534;SHT31;58088;51.186;17.130;2024-02-26T00:24:19;4.65;69.85
70534;SHT31;58088;51.186;17.130;2024-02-26T00:26:45;4.65;69.70
70534;SHT31;58088;51.186;17.130;2024-02-26T00:29:12;4.64;69.63
70534;SHT31;58088;51.186;17.130;2024-02-26T00:31:38;4.64;69.50
70534;SHT31;58088;51.186;17.130;2024-02-26T00:34:04;4.61;69.39
70534;SHT31;58088;51.186;17.130;2024-02-26T00:36:30;4.59;69.31
70534;SHT31;58088;51.186;17.130;2024-02-26T00:38:56;4.58;69.29
70534;SHT31;58088;51.186;17.130;2024-02-26T00:41:22;4.55;69.38
70534;SHT31;58088;51.186;17.130;2024-02-26T00:43:48;4.52;69.52
70534;SHT31;58088;51.186;17.130;2024-02-26T00:46:15;4.51;69.67
70534;SHT31;58088;51.186;17.130;2024-02-26T00:48:41;4.50;69.80
70534;SHT31;58088;51.186;17.130;2024-02-26T00:51:07;4.51;69.80
70534;SHT31;58088;51.186;17.130;2024-02-26T00:53:34;4.51;69.73
70534;SHT31;58088;51.186;17.130;2024-02-26T00:56:00;4.48;69.80
70534;SHT31;58088;51.186;17.130;2024-02-26T00:58:27;4.48;69.90
70534;SHT31;58088;51.186;17.130;2024-02-26T01:00:53;4.46;69.91
70534;SHT31;58088;51.186;17.130;2024-02-26T01:03:20;4.44;70.05
70534;SHT31;58088;51.186;17.130;2024-02-26T01:05:46;4.42;70.23
70534;SHT31;58088;51.186;17.130;2024-02-26T01:08:13;4.43;70.36
70534;SHT31;58088;51.186;17.130;2024-02-26T01:10:39;4.43;70.41
70534;SHT31;58088;51.186;17.130;2024-02-26T01:13:05;4.44;70.45
70534;SHT31;58088;51.186;17.130;2024-02-26T01:15:33;4.42;70.59
70534;SHT31;58088;51.186;17.130;2024-02-26T01:17:59;4.38;70.82
70534;SHT31;58088;51.186;17.130;2024-02-26T01:20:25;4.35;71.03
70534;SHT31;58088;51.186;17.130;2024-02-26T01:22:51;4.36;71.10
70534;SHT31;58088;51.186;17.130;2024-02-26T01:25:17;4.37;71.13
70534;SHT31;58088;51.186;17.130;2024-02-26T01:27:44;4.39;71.17
70534;SHT31;58088;51.186;17.130;2024-02-26T01:30:10;4.41;71.10
70534;SHT31;58088;51.186;17.130;2024-02-26T01:32:37;4.43;71.10
70534;SHT31;58088;51.186;17.130;2024-02-26T01:35:03;4.43;71.00
70534;SHT31;58088;51.186;17.130;2024-02-26T01:37:30;4.44;70.99
70534;SHT31;58088;51.186;17.130;2024-02-26T01:39:56;4.43;71.04
70534;SHT31;58088;51.186;17.130;2024-02-26T01:42:23;4.44;71.26
70534;SHT31;58088;51.186;17.130;2024-02-26T01:44:49;4.46;71.31
70534;SHT31;58088;51.186;17.130;2024-02-26T01:47:15;4.45;71.34
70534;SHT31;58088;51.186;17.130;2024-02-26T01:49:41;4.44;71.39
70534;SHT31;58088;51.186;17.130;2024-02-26T01:52:08;4.44;71.39
70534;SHT31;58088;51.186;17.130;2024-02-26T01:54:37;4.43;71.30
70534;SHT31;58088;51.186;17.130;2024-02-26T01:57:05;4.41;71.26
70534;SHT31;58088;51.186;17.130;2024-02-26T01:59:33;4.42;71.33
70534;SHT31;58088;51.186;17.130;2024-02-26T02:02:01;4.43;71.38
70534;SHT31;58088;51.186;17.130;2024-02-26T02:04:33;4.44;71.43
70534;SHT31;58088;51.186;17.130;2024-02-26T02:07:00;4.43;71.36
70534;SHT31;58088;51.186;17.130;2024-02-26T02:09:28;4.43;71.36
70534;SHT31;58088;51.186;17.130;2024-02-26T02:11:54;4.44;71.37
70534;SHT31;58088;51.186;17.130;2024-02-26T02:14:21;4.46;71.31
70534;SHT31;58088;51.186;17.130;2024-02-26T02:16:48;4.47;71.31
70534;SHT31;58088;51.186;17.130;2024-02-26T02:19:14;4.49;71.30
70534;SHT31;58088;51.186;17.130;2024-02-26T02:21:40;4.51;71.31
70534;SHT31;58088;51.186;17.130;2024-02-26T02:24:06;4.52;71.30
70534;SHT31;58088;51.186;17.130;2024-02-26T02:26:32;4.51;71.27
70534;SHT31;58088;51.186;17.130;2024-02-26T02:28:59;4.51;71.26
70534;SHT31;58088;51.186;17.130;2024-02-26T02:31:26;4.51;71.31
70534;SHT31;58088;51.186;17.130;2024-02-26T02:33:52;4.50;71.36
70534;SHT31;58088;51.186;17.130;2024-02-26T02:36:19;4.50;71.51
70534;SHT31;58088;51.186;17.130;2024-02-26T02:38:48;4.51;71.60
70534;SHT31;58088;51.186;17.130;2024-02-26T02:41:16;4.52;71.68
70534;SHT31;58088;51.186;17.130;2024-02-26T02:43:42;4.52;71.68
70534;SHT31;58088;51.186;17.130;2024-02-26T02:46:09;4.50;71.78
70534;SHT31;58088;51.186;17.130;2024-02-26T02:48:37;4.51;71.89
70534;SHT31;58088;51.186;17.130;2024-02-26T02:51:04;4.51;71.88
70534;SHT31;58088;51.186;17.130;2024-02-26T02:53:30;4.51;71.79
70534;SHT31;58088;51.186;17.130;2024-02-26T02:55:56;4.49;71.71
70534;SHT31;58088;51.186;17.130;2024-02-26T02:58:23;4.49;71.77
70534;SHT31;58088;51.186;17.130;2024-02-26T03:00:49;4.49;71.70
70534;SHT31;58088;51.186;17.130;2024-02-26T03:03:34;4.47;71.71
70534;SHT31;58088;51.186;17.130;2024-02-26T03:06:02;4.45;71.81
70534;SHT31;58088;51.186;17.130;2024-02-26T03:08:29;4.43;71.94
70534;SHT31;58088;51.186;17.130;2024-02-26T03:10:55;4.40;72.14
70534;SHT31;58088;51.186;17.130;2024-02-26T03:13:23;4.40;72.20
70534;SHT31;58088;51.186;17.130;2024-02-26T03:15:49;4.38;72.19
70534;SHT31;58088;51.186;17.130;2024-02-26T03:18:15;4.37;72.15
70534;SHT31;58088;51.186;17.130;2024-02-26T03:20:42;4.37;72.12
70534;SHT31;58088;51.186;17.130;2024-02-26T03:23:08;4.39;72.09
70534;SHT31;58088;51.186;17.130;2024-02-26T03:25:38;4.37;72.00
70534;SHT31;58088;51.186;17.130;2024-02-26T03:28:04;4.37;71.90
70534;SHT31;58088;51.186;17.130;2024-02-26T03:30:30;4.37;71.79
70534;SHT31;58088;51.186;17.130;2024-02-26T03:32:57;4.37;71.80
70534;SHT31;58088;51.186;17.130;2024-02-26T03:35:23;4.38;71.87
70534;SHT31;58088;51.186;17.130;2024-02-26T03:37:49;4.38;71.91
70534;SHT31;58088;51.186;17.130;2024-02-26T03:40:17;4.39;71.95
70534;SHT31;58088;51.186;17.130;2024-02-26T03:42:45;4.39;72.04
70534;SHT31;58088;51.186;17.130;2024-02-26T03:45:11;4.39;72.14
70534;SHT31;58088;51.186;17.130;2024-02-26T03:47:38;4.40;72.28
70534;SHT31;58088;51.186;17.130;2024-02-26T03:50:07;4.39;72.31
70534;SHT31;58088;51.186;17.130;2024-02-26T03:52:34;4.40;72.38
70534;SHT31;58088;51.186;17.130;2024-02-26T03:55:00;4.43;72.47
70534;SHT31;58088;51.186;17.130;2024-02-26T03:57:26;4.45;72.43
70534;SHT31;58088;51.186;17.130;2024-02-26T03:59:52;4.47;72.47
70534;SHT31;58088;51.186;17.130;2024-02-26T04:02:19;4.47;72.41
70534;SHT31;58088;51.186;17.130;2024-02-26T04:04:46;4.48;72.40
70534;SHT31;58088;51.186;17.130;2024-02-26T04:07:13;4.48;72.34
70534;SHT31;58088;51.186;17.130;2024-02-26T04:09:39;4.48;72.24
70534;SHT31;58088;51.186;17.130;2024-02-26T04:12:05;4.47;72.15
70534;SHT31;58088;51.186;17.130;2024-02-26T04:14:32;4.45;72.05
70534;SHT31;58088;51.186;17.130;2024-02-26T04:16:58;4.44;72.07
70534;SHT31;58088;51.186;17.130;2024-02-26T04:19:24;4.45;72.06
70534;SHT31;58088;51.186;17.130;2024-02-26T04:21:50;4.44;72.07
70534;SHT31;58088;51.186;17.130;2024-02-26T04:24:16;4.43;72.04
70534;SHT31;58088;51.186;17.130;2024-02-26T04:26:42;4.43;72.10
70534;SHT31;58088;51.186;17.130;2024-02-26T04:29:09;4.42;72.03
70534;SHT31;58088;51.186;17.130;2024-02-26T04:31:36;4.35;72.07
70534;SHT31;58088;51.186;17.130;2024-02-26T04:34:03;4.30;72.18
70534;SHT31;58088;51.186;17.130;2024-02-26T04:36:29;4.29;72.29
70534;SHT31;58088;51.186;17.130;2024-02-26T04:38:56;4.27;72.30
70534;SHT31;58088;51.186;17.130;2024-02-26T04:41:22;4.27;72.30
70534;SHT31;58088;51.186;17.130;2024-02-26T04:43:48;4.26;72.34
70534;SHT31;58088;51.186;17.130;2024-02-26T04:46:14;4.25;72.39
70534;SHT31;58088;51.186;17.130;2024-02-26T04:48:41;4.24;72.47
70534;SHT31;58088;51.186;17.130;2024-02-26T04:51:07;4.24;72.51
70534;SHT31;58088;51.186;17.130;2024-02-26T04:53:33;4.25;72.38
70534;SHT31;58088;51.186;17.130;2024-02-26T04:55:59;4.24;72.33
70534;SHT31;58088;51.186;17.130;2024-02-26T04:58:26;4.24;72.45
70534;SHT31;58088;51.186;17.130;2024-02-26T05:00:52;4.25;72.48
70534;SHT31;58088;51.186;17.130;2024-02-26T05:03:18;4.24;72.47
70534;SHT31;58088;51.186;17.130;2024-02-26T05:05:44;4.26;72.46
70534;SHT31;58088;51.186;17.130;2024-02-26T05:08:11;4.24;72.33
70534;SHT31;58088;51.186;17.130;2024-02-26T05:10:40;4.22;72.20
70534;SHT31;58088;51.186;17.130;2024-02-26T05:13:06;4.21;72.15
70534;SHT31;58088;51.186;17.130;2024-02-26T05:15:33;4.19;72.10
70534;SHT31;58088;51.186;17.130;2024-02-26T05:18:00;4.14;72.16
70534;SHT31;58088;51.186;17.130;2024-02-26T05:20:26;4.12;72.24
70534;SHT31;58088;51.186;17.130;2024-02-26T05:22:53;4.12;72.28
70534;SHT31;58088;51.186;17.130;2024-02-26T05:25:19;4.12;72.30
70534;SHT31;58088;51.186;17.130;2024-02-26T05:27:45;4.13;72.32
70534;SHT31;58088;51.186;17.130;2024-02-26T05:30:13;4.15;72.43
70534;SHT31;58088;51.186;17.130;2024-02-26T05:32:44;4.13;72.39
70534;SHT31;58088;51.186;17.130;2024-02-26T05:35:10;4.13;72.40
70534;SHT31;58088;51.186;17.130;2024-02-26T05:37:36;4.15;72.39
70534;SHT31;58088;51.186;17.130;2024-02-26T05:40:03;4.12;72.30
70534;SHT31;58088;51.186;17.130;2024-02-26T05:42:31;4.09;72.39
70534;SHT31;58088;51.186;17.130;2024-02-26T05:44:59;4.09;72.40
70534;SHT31;58088;51.186;17.130;2024-02-26T05:47:30;4.11;72.40
70534;SHT31;58088;51.186;17.130;2024-02-26T05:49:57;4.11;72.38
70534;SHT31;58088;51.186;17.130;2024-02-26T05:52:24;4.11;72.30
70534;SHT31;58088;51.186;17.130;2024-02-26T05:54:51;4.12;72.30
70534;SHT31;58088;51.186;17.130;2024-02-26T05:57:17;4.13;72.25
70534;SHT31;58088;51.186;17.130;2024-02-26T05:59:44;4.13;72.23
70534;SHT31;58088;51.186;17.130;2024-02-26T06:02:10;4.16;72.35
70534;SHT31;58088;51.186;17.130;2024-02-26T06:04:37;4.17;72.48
70534;SHT31;58088;51.186;17.130;2024-02-26T06:07:04;4.20;72.63
70534;SHT31;58088;51.186;17.130;2024-02-26T06:09:30;4.25;72.64
70534;SHT31;58088;51.186;17.130;2024-02-26T06:11:56;4.27;72.62
70534;SHT31;58088;51.186;17.130;2024-02-26T06:14:23;4.33;72.69
70534;SHT31;58088;51.186;17.130;2024-02-26T06:16:49;4.44;72.70
70534;SHT31;58088;51.186;17.130;2024-02-26T06:19:15;4.66;72.72
70534;SHT31;58088;51.186;17.130;2024-02-26T06:21:41;4.91;72.61
70534;SHT31;58088;51.186;17.130;2024-02-26T06:24:07;5.17;72.40
70534;SHT31;58088;51.186;17.130;2024-02-26T06:26:33;5.45;72.14
70534;SHT31;58088;51.186;17.130;2024-02-26T06:29:00;5.73;71.86
70534;SHT31;58088;51.186;17.130;2024-02-26T06:31:26;6.05;71.62
70534;SHT31;58088;51.186;17.130;2024-02-26T06:33:53;6.35;71.38
70534;SHT31;58088;51.186;17.130;2024-02-26T06:36:21;6.64;70.95
70534;SHT31;58088;51.186;17.130;2024-02-26T06:38:48;6.93;70.70
70534;SHT31;58088;51.186;17.130;2024-02-26T06:41:15;7.25;70.39
70534;SHT31;58088;51.186;17.130;2024-02-26T06:43:41;7.52;69.92
70534;SHT31;58088;51.186;17.130;2024-02-26T06:46:07;7.78;69.77
70534;SHT31;58088;51.186;17.130;2024-02-26T06:48:33;7.94;69.61
70534;SHT31;58088;51.186;17.130;2024-02-26T06:51:02;8.04;69.61
70534;SHT31;58088;51.186;17.130;2024-02-26T06:53:29;8.16;69.52
70534;SHT31;58088;51.186;17.130;2024-02-26T06:55:55;8.25;69.40
70534;SHT31;58088;51.186;17.130;2024-02-26T06:58:22;8.33;69.38
70534;SHT31;58088;51.186;17.130;2024-02-26T07:00:50;8.48;69.43
70534;SHT31;58088;51.186;17.130;2024-02-26T07:03:16;8.62;69.22
70534;SHT31;58088;51.186;17.130;2024-02-26T07:05:43;8.75;69.10
70534;SHT31;58088;51.186;17.130;2024-02-26T07:08:10;8.94;68.92
70534;SHT31;58088;51.186;17.130;2024-02-26T07:10:37;9.10;68.71
70534;SHT31;58088;51.186;17.130;2024-02-26T07:13:03;9.30;68.63
70534;SHT31;58088;51.186;17.130;2024-02-26T07:15:29;9.47;68.31
70534;SHT31;58088;51.186;17.130;2024-02-26T07:17:56;9.59;68.17
70534;SHT31;58088;51.186;17.130;2024-02-26T07:20:22;9.72;68.04
70534;SHT31;58088;51.186;17.130;2024-02-26T07:22:50;9.89;67.97
70534;SHT31;58088;51.186;17.130;2024-02-26T07:25:16;10.09;67.75
70534;SHT31;58088;51.186;17.130;2024-02-26T07:27:42;10.20;67.34
70534;SHT31;58088;51.186;17.130;2024-02-26T07:30:11;10.27;67.20
70534;SHT31;58088;51.186;17.130;2024-02-26T07:32:38;10.43;67.07
70534;SHT31;58088;51.186;17.130;2024-02-26T07:35:04;10.56;66.85
70534;SHT31;58088;51.186;17.130;2024-02-26T07:37:31;10.65;66.56
70534;SHT31;58088;51.186;17.130;2024-02-26T07:39:57;10.75;66.40
70534;SHT31;58088;51.186;17.130;2024-02-26T07:42:23;10.88;66.27
70534;SHT31;58088;51.186;17.130;2024-02-26T07:44:49;11.03;66.19
70534;SHT31;58088;51.186;17.130;2024-02-26T07:47:16;11.14;65.90
70534;SHT31;58088;51.186;17.130;2024-02-26T07:49:42;11.17;65.60
70534;SHT31;58088;51.186;17.130;2024-02-26T07:52:08;11.24;65.51
70534;SHT31;58088;51.186;17.130;2024-02-26T07:54:34;11.33;65.37
70534;SHT31;58088;51.186;17.130;2024-02-26T07:57:00;11.40;65.28
70534;SHT31;58088;51.186;17.130;2024-02-26T07:59:29;11.53;65.01
70534;SHT31;58088;51.186;17.130;2024-02-26T08:01:55;11.65;64.77
70534;SHT31;58088;51.186;17.130;2024-02-26T08:04:21;11.75;64.58
70534;SHT31;58088;51.186;17.130;2024-02-26T08:06:54;11.89;64.32
70534;SHT31;58088;51.186;17.130;2024-02-26T08:09:20;12.01;64.25
70534;SHT31;58088;51.186;17.130;2024-02-26T08:11:46;12.20;64.30
70534;SHT31;58088;51.186;17.130;2024-02-26T08:14:12;12.33;63.61
70534;SHT31;58088;51.186;17.130;2024-02-26T08:16:39;12.30;63.22
70534;SHT31;58088;51.186;17.130;2024-02-26T08:19:05;12.35;63.40
70534;SHT31;58088;51.186;17.130;2024-02-26T08:21:35;12.49;63.10
70534;SHT31;58088;51.186;17.130;2024-02-26T08:24:02;12.62;62.78
70534;SHT31;58088;51.186;17.130;2024-02-26T08:26:29;12.72;62.48
70534;SHT31;58088;51.186;17.130;2024-02-26T08:28:55;12.78;62.17
70534;SHT31;58088;51.186;17.130;2024-02-26T08:31:21;12.88;62.18
70534;SHT31;58088;51.186;17.130;2024-02-26T08:33:52;13.00;61.87
70534;SHT31;58088;51.186;17.130;2024-02-26T08:36:28;13.13;61.70
70534;SHT31;58088;51.186;17.130;2024-02-26T08:38:55;13.20;61.14
70534;SHT31;58088;51.186;17.130;2024-02-26T08:41:23;13.40;61.26
70534;SHT31;58088;51.186;17.130;2024-02-26T08:43:50;13.59;60.89
70534;SHT31;58088;51.186;17.130;2024-02-26T08:46:18;13.66;59.73
70534;SHT31;58088;51.186;17.130;2024-02-26T08:48:45;13.71;59.66
70534;SHT31;58088;51.186;17.130;2024-02-26T08:51:13;13.75;59.44
70534;SHT31;58088;51.186;17.130;2024-02-26T08:53:40;13.83;59.64
70534;SHT31;58088;51.186;17.130;2024-02-26T08:56:08;13.97;59.22
70534;SHT31;58088;51.186;17.130;2024-02-26T08:58:37;14.06;58.64
70534;SHT31;58088;51.186;17.130;2024-02-26T09:01:05;14.15;58.39
70534;SHT31;58088;51.186;17.130;2024-02-26T09:03:32;14.21;58.11
70534;SHT31;58088;51.186;17.130;2024-02-26T09:06:01;14.19;57.84
70534;SHT31;58088;51.186;17.130;2024-02-26T09:08:28;14.27;58.03
70534;SHT31;58088;51.186;17.130;2024-02-26T09:10:56;14.36;57.34
70534;SHT31;58088;51.186;17.130;2024-02-26T09:13:24;14.34;56.87
70534;SHT31;58088;51.186;17.130;2024-02-26T09:15:51;14.39;57.20
70534;SHT31;58088;51.186;17.130;2024-02-26T09:18:18;14.51;57.06
70534;SHT31;58088;51.186;17.130;2024-02-26T09:20:46;14.55;56.48
70534;SHT31;58088;51.186;17.130;2024-02-26T09:23:23;14.57;55.92
70534;SHT31;58088;51.186;17.130;2024-02-26T09:25:57;14.57;55.56
70534;SHT31;58088;51.186;17.130;2024-02-26T09:28:34;14.62;55.59
70534;SHT31;58088;51.186;17.130;2024-02-26T09:31:04;14.67;55.42
70534;SHT31;58088;51.186;17.130;2024-02-26T09:33:32;14.72;55.16
70534;SHT31;58088;51.186;17.130;2024-02-26T09:35:59;14.87;55.09
70534;SHT31;58088;51.186;17.130;2024-02-26T09:38:26;14.97;54.63
70534;SHT31;58088;51.186;17.130;2024-02-26T09:40:53;15.05;54.36
70534;SHT31;58088;51.186;17.130;2024-02-26T09:43:21;15.08;53.95
70534;SHT31;58088;51.186;17.130;2024-02-26T09:45:53;15.11;54.00
70534;SHT31;58088;51.186;17.130;2024-02-26T09:48:22;15.10;53.91
70534;SHT31;58088;51.186;17.130;2024-02-26T09:50:49;15.10;53.70
70534;SHT31;58088;51.186;17.130;2024-02-26T09:53:16;15.10;53.27
70534;SHT31;58088;51.186;17.130;2024-02-26T09:55:44;15.07;53.31
70534;SHT31;58088;51.186;17.130;2024-02-26T09:58:10;15.09;53.57
70534;SHT31;58088;51.186;17.130;2024-02-26T10:00:45;15.22;53.37
70534;SHT31;58088;51.186;17.130;2024-02-26T10:03:19;15.28;53.31
70534;SHT31;58088;51.186;17.130;2024-02-26T10:05:50;15.31;52.94
70534;SHT31;58088;51.186;17.130;2024-02-26T10:08:16;15.35;53.02
70534;SHT31;58088;51.186;17.130;2024-02-26T10:10:47;15.45;52.71
70534;SHT31;58088;51.186;17.130;2024-02-26T10:13:15;15.54;52.48
70534;SHT31;58088;51.186;17.130;2024-02-26T10:15:41;15.61;51.96
70534;SHT31;58088;51.186;17.130;2024-02-26T10:18:08;15.55;51.51
70534;SHT31;58088;51.186;17.130;2024-02-26T10:20:35;15.55;51.10
70534;SHT31;58088;51.186;17.130;2024-02-26T10:23:04;15.62;51.59
70534;SHT31;58088;51.186;17.130;2024-02-26T10:25:31;15.67;50.93
70534;SHT31;58088;51.186;17.130;2024-02-26T10:28:01;15.65;50.89
70534;SHT31;58088;51.186;17.130;2024-02-26T10:30:28;15.71;50.68
70534;SHT31;58088;51.186;17.130;2024-02-26T10:32:56;15.75;50.81
70534;SHT31;58088;51.186;17.130;2024-02-26T10:35:23;15.81;50.69
70534;SHT31;58088;51.186;17.130;2024-02-26T10:37:50;15.81;50.56
70534;SHT31;58088;51.186;17.130;2024-02-26T10:40:18;15.87;50.68
70534;SHT31;58088;51.186;17.130;2024-02-26T10:42:44;15.95;50.32
70534;SHT31;58088;51.186;17.130;2024-02-26T10:45:13;15.94;50.21
70534;SHT31;58088;51.186;17.130;2024-02-26T10:48:48;15.94;49.82
70534;SHT31;58088;51.186;17.130;2024-02-26T10:51:44;15.89;50.24
70534;SHT31;58088;51.186;17.130;2024-02-26T10:54:15;15.91;49.74
70534;SHT31;58088;51.186;17.130;2024-02-26T10:56:42;15.89;49.79
70534;SHT31;58088;51.186;17.130;2024-02-26T10:59:14;15.82;49.81
70534;SHT31;58088;51.186;17.130;2024-02-26T11:01:49;15.76;49.41
70534;SHT31;58088;51.186;17.130;2024-02-26T11:04:17;15.72;49.26
70534;SHT31;58088;51.186;17.130;2024-02-26T11:06:45;15.70;49.30
70534;SHT31;58088;51.186;17.130;2024-02-26T11:09:15;15.70;49.35
70534;SHT31;58088;51.186;17.130;2024-02-26T11:11:45;15.69;49.41
70534;SHT31;58088;51.186;17.130;2024-02-26T11:14:12;15.74;49.46
70534;SHT31;58088;51.186;17.130;2024-02-26T11:16:40;15.76;49.70
70534;SHT31;58088;51.186;17.130;2024-02-26T11:19:08;15.88;50.04
70534;SHT31;58088;51.186;17.130;2024-02-26T11:21:36;15.96;49.79
70534;SHT31;58088;51.186;17.130;2024-02-26T11:24:13;15.94;49.53
70534;SHT31;58088;51.186;17.130;2024-02-26T11:26:51;15.95;49.20
70534;SHT31;58088;51.186;17.130;2024-02-26T11:29:52;15.97;49.35
70534;SHT31;58088;51.186;17.130;2024-02-26T11:32:20;16.09;49.53
70534;SHT31;58088;51.186;17.130;2024-02-26T11:34:47;16.15;49.13
70534;SHT31;58088;51.186;17.130;2024-02-26T11:37:15;16.22;49.10
70534;SHT31;58088;51.186;17.130;2024-02-26T11:39:43;16.26;49.04
70534;SHT31;58088;51.186;17.130;2024-02-26T11:42:14;16.33;49.36
70534;SHT31;58088;51.186;17.130;2024-02-26T11:44:42;16.39;49.09
70534;SHT31;58088;51.186;17.130;2024-02-26T11:49:39;16.36;48.74
70534;SHT31;58088;51.186;17.130;2024-02-26T11:52:07;16.34;48.76
70534;SHT31;58088;51.186;17.130;2024-02-26T11:57:26;16.38;48.62
70534;SHT31;58088;51.186;17.130;2024-02-26T11:59:55;16.38;48.82
70534;SHT31;58088;51.186;17.130;2024-02-26T12:02:55;16.38;48.23
70534;SHT31;58088;51.186;17.130;2024-02-26T12:05:30;16.36;48.47
70534;SHT31;58088;51.186;17.130;2024-02-26T12:08:02;16.36;48.15
70534;SHT31;58088;51.186;17.130;2024-02-26T12:10:39;16.30;47.86
70534;SHT31;58088;51.186;17.130;2024-02-26T12:18:17;16.25;48.39
70534;SHT31;58088;51.186;17.130;2024-02-26T12:20:46;16.25;48.33
70534;SHT31;58088;51.186;17.130;2024-02-26T12:23:16;16.28;48.11
70534;SHT31;58088;51.186;17.130;2024-02-26T12:25:45;16.31;48.00
70534;SHT31;58088;51.186;17.130;2024-02-26T12:28:16;16.31;47.58
70534;SHT31;58088;51.186;17.130;2024-02-26T12:30:42;16.32;47.87
70534;SHT31;58088;51.186;17.130;2024-02-26T12:33:09;16.30;47.92
70534;SHT31;58088;51.186;17.130;2024-02-26T12:35:36;16.29;48.04
70534;SHT31;58088;51.186;17.130;2024-02-26T12:38:02;16.35;48.01
70534;SHT31;58088;51.186;17.130;2024-02-26T12:40:29;16.38;48.29
70534;SHT31;58088;51.186;17.130;2024-02-26T12:42:56;16.36;48.06
70534;SHT31;58088;51.186;17.130;2024-02-26T12:45:24;16.36;47.91
70534;SHT31;58088;51.186;17.130;2024-02-26T12:47:51;16.35;47.89
70534;SHT31;58088;51.186;17.130;2024-02-26T12:50:18;16.35;47.96
70534;SHT31;58088;51.186;17.130;2024-02-26T12:52:45;16.37;47.89
70534;SHT31;58088;51.186;17.130;2024-02-26T12:55:14;16.37;47.83
70534;SHT31;58088;51.186;17.130;2024-02-26T12:57:44;16.34;48.01
70534;SHT31;58088;51.186;17.130;2024-02-26T13:00:12;16.32;47.80
70534;SHT31;58088;51.186;17.130;2024-02-26T13:02:42;16.34;48.06
70534;SHT31;58088;51.186;17.130;2024-02-26T13:05:12;16.37;48.30
70534;SHT31;58088;51.186;17.130;2024-02-26T13:07:45;16.32;48.05
70534;SHT31;58088;51.186;17.130;2024-02-26T13:10:16;16.28;47.74
70534;SHT31;58088;51.186;17.130;2024-02-26T13:12:45;16.30;47.85
70534;SHT31;58088;51.186;17.130;2024-02-26T13:15:21;16.28;47.67
70534;SHT31;58088;51.186;17.130;2024-02-26T13:17:48;16.26;47.63
70534;SHT31;58088;51.186;17.130;2024-02-26T13:20:25;16.25;47.66
70534;SHT31;58088;51.186;17.130;2024-02-26T13:23:03;16.22;47.60
70534;SHT31;58088;51.186;17.130;2024-02-26T13:25:32;16.20;47.83
70534;SHT31;58088;51.186;17.130;2024-02-26T13:28:06;16.23;48.18
70534;SHT31;58088;51.186;17.130;2024-02-26T13:30:52;16.22;48.05
70534;SHT31;58088;51.186;17.130;2024-02-26T13:33:24;16.20;47.87
70534;SHT31;58088;51.186;17.130;2024-02-26T13:35:51;16.15;47.50
70534;SHT31;58088;51.186;17.130;2024-02-26T13:38:20;16.07;47.93
70534;SHT31;58088;51.186;17.130;2024-02-26T13:40:47;16.07;47.85
70534;SHT31;58088;51.186;17.130;2024-02-26T13:43:16;16.07;47.84
70534;SHT31;58088;51.186;17.130;2024-02-26T13:45:45;16.11;48.36
70534;SHT31;58088;51.186;17.130;2024-02-26T13:48:12;16.14;48.14
70534;SHT31;58088;51.186;17.130;2024-02-26T13:50:40;16.14;48.13
70534;SHT31;58088;51.186;17.130;2024-02-26T13:53:11;16.19;48.37
70534;SHT31;58088;51.186;17.130;2024-02-26T13:55:48;16.23;48.05
70534;SHT31;58088;51.186;17.130;2024-02-26T13:58:33;16.25;47.98
70534;SHT31;58088;51.186;17.130;2024-02-26T14:01:00;16.22;47.80
70534;SHT31;58088;51.186;17.130;2024-02-26T14:03:29;16.16;47.84
70534;SHT31;58088;51.186;17.130;2024-02-26T14:05:55;16.11;47.88
70534;SHT31;58088;51.186;17.130;2024-02-26T14:08:22;16.07;48.06
70534;SHT31;58088;51.186;17.130;2024-02-26T14:10:49;16.05;48.12
70534;SHT31;58088;51.186;17.130;2024-02-26T14:13:15;16.04;48.33
70534;SHT31;58088;51.186;17.130;2024-02-26T14:15:41;16.03;48.51
70534;SHT31;58088;51.186;17.130;2024-02-26T14:18:10;15.99;48.52
70534;SHT31;58088;51.186;17.130;2024-02-26T14:20:36;16.01;48.72
70534;SHT31;58088;51.186;17.130;2024-02-26T14:23:12;16.01;49.01
70534;SHT31;58088;51.186;17.130;2024-02-26T14:25:39;15.99;48.85
70534;SHT31;58088;51.186;17.130;2024-02-26T14:28:06;15.97;48.95
70534;SHT31;58088;51.186;17.130;2024-02-26T14:30:32;15.97;49.09
70534;SHT31;58088;51.186;17.130;2024-02-26T14:32:58;15.94;48.84
70534;SHT31;58088;51.186;17.130;2024-02-26T14:35:25;15.91;48.91
70534;SHT31;58088;51.186;17.130;2024-02-26T14:37:52;15.88;48.92
70534;SHT31;58088;51.186;17.130;2024-02-26T14:40:19;15.86;49.09
70534;SHT31;58088;51.186;17.130;2024-02-26T14:42:46;15.86;49.07
70534;SHT31;58088;51.186;17.130;2024-02-26T14:45:12;15.87;49.07
70534;SHT31;58088;51.186;17.130;2024-02-26T14:47:38;15.88;49.19
70534;SHT31;58088;51.186;17.130;2024-02-26T14:50:05;15.89;49.36
70534;SHT31;58088;51.186;17.130;2024-02-26T14:52:32;15.91;49.45
70534;SHT31;58088;51.186;17.130;2024-02-26T14:54:58;15.92;49.54
70534;SHT31;58088;51.186;17.130;2024-02-26T14:57:27;15.89;49.32
70534;SHT31;58088;51.186;17.130;2024-02-26T14:59:53;15.87;49.43
70534;SHT31;58088;51.186;17.130;2024-02-26T15:02:20;15.85;49.45
70534;SHT31;58088;51.186;17.130;2024-02-26T15:04:46;15.81;49.57
70534;SHT31;58088;51.186;17.130;2024-02-26T15:07:14;15.79;49.58
70534;SHT31;58088;51.186;17.130;2024-02-26T15:09:40;15.78;49.51
70534;SHT31;58088;51.186;17.130;2024-02-26T15:12:06;15.80;49.58
70534;SHT31;58088;51.186;17.130;2024-02-26T15:14:33;15.80;49.81
70534;SHT31;58088;51.186;17.130;2024-02-26T15:17:00;15.80;49.57
70534;SHT31;58088;51.186;17.130;2024-02-26T15:19:28;15.78;49.68
70534;SHT31;58088;51.186;17.130;2024-02-26T15:21:54;15.74;49.75
70534;SHT31;58088;51.186;17.130;2024-02-26T15:24:23;15.77;50.22
70534;SHT31;58088;51.186;17.130;2024-02-26T15:26:52;15.77;50.00
70534;SHT31;58088;51.186;17.130;2024-02-26T15:29:19;15.77;50.22
70534;SHT31;58088;51.186;17.130;2024-02-26T15:31:45;15.79;50.28
70534;SHT31;58088;51.186;17.130;2024-02-26T15:34:16;15.81;50.42
70534;SHT31;58088;51.186;17.130;2024-02-26T15:36:42;15.83;50.29
70534;SHT31;58088;51.186;17.130;2024-02-26T15:39:08;15.79;50.19